createdAt,value
2023-03-13T00:02:50.396Z,6.14
2023-03-13T00:09:20.284Z,6.31
2023-03-13T00:12:23.559Z,6.28
2023-03-13T00:15:26.617Z,6.47
2023-03-13T00:18:29.809Z,6.52
2023-03-13T00:21:33.668Z,6.42
2023-03-13T00:24:36.697Z,6.35
2023-03-13T00:27:40.054Z,6.44
2023-03-13T00:30:44.176Z,6.42
2023-03-13T00:33:49.481Z,6.47
2023-03-13T00:36:52.753Z,6.36
2023-03-13T00:39:55.825Z,6.33
2023-03-13T00:42:59.856Z,6.25
2023-03-13T00:46:03.128Z,6.20
2023-03-13T00:49:06.971Z,6.22
2023-03-13T00:52:09.880Z,6.12
2023-03-13T00:55:12.991Z,6.00
2023-03-13T00:58:16.314Z,6.02
2023-03-13T01:01:23.740Z,5.88
2023-03-13T01:04:27.287Z,5.98
2023-03-13T01:07:30.228Z,5.93
2023-03-13T01:10:34.316Z,5.84
2023-03-13T01:13:37.920Z,5.81
2023-03-13T01:16:42.117Z,5.80
2023-03-13T01:19:45.139Z,5.71
2023-03-13T01:22:48.412Z,5.65
2023-03-13T01:25:51.296Z,5.55
2023-03-13T01:28:55.393Z,5.30
2023-03-13T01:31:59.203Z,5.45
2023-03-13T01:35:02.542Z,5.38
2023-03-13T01:38:06.025Z,5.29
2023-03-13T01:41:11.993Z,5.20
2023-03-13T01:44:25.060Z,5.36
2023-03-13T01:47:29.382Z,5.40
2023-03-13T01:50:50.394Z,5.35
2023-03-13T01:54:09.992Z,5.29
2023-03-13T01:57:28.305Z,5.26
2023-03-13T02:00:36.982Z,5.22
2023-03-13T02:03:46.192Z,5.26
2023-03-13T02:06:53.393Z,5.29
2023-03-13T02:10:00.678Z,5.20
2023-03-13T02:13:04.202Z,5.20
2023-03-13T02:16:08.475Z,5.20
2023-03-13T02:19:36.870Z,5.14
2023-03-13T02:22:50.052Z,5.14
2023-03-13T02:25:55.113Z,5.09
2023-03-13T02:29:03.391Z,5.08
2023-03-13T02:32:07.344Z,5.09
2023-03-13T02:35:13.898Z,5.08
2023-03-13T02:38:23.833Z,5.12
2023-03-13T02:41:28.797Z,4.99
2023-03-13T02:44:39.537Z,5.11
2023-03-13T02:47:44.219Z,5.01
2023-03-13T02:50:49.887Z,5.09
2023-03-13T02:53:56.677Z,5.10
2023-03-13T02:57:03.559Z,5.20
2023-03-13T03:00:12.661Z,5.16
2023-03-13T03:03:16.877Z,5.16
2023-03-13T03:06:20.195Z,5.13
2023-03-13T03:09:24.893Z,5.21
2023-03-13T03:12:32.648Z,5.09
2023-03-13T03:15:36.413Z,5.12
2023-03-13T03:18:40.613Z,5.08
2023-03-13T03:21:44.067Z,5.14
2023-03-13T03:24:47.581Z,5.14
2023-03-13T03:27:51.224Z,5.17
2023-03-13T03:30:54.471Z,5.21
2023-03-13T03:33:57.606Z,5.23
2023-03-13T03:37:00.905Z,5.25
2023-03-13T03:40:08.447Z,5.24
2023-03-13T03:43:11.753Z,5.20
2023-03-13T03:46:15.863Z,5.15
2023-03-13T03:49:19.456Z,5.15
2023-03-13T03:52:22.963Z,5.26
2023-03-13T03:55:26.295Z,5.25
2023-03-13T03:58:29.576Z,5.22
2023-03-13T04:01:46.958Z,5.23
2023-03-13T04:04:53.428Z,5.16
2023-03-13T04:08:05.760Z,5.10
2023-03-13T04:11:08.732Z,5.06
2023-03-13T04:14:15.187Z,5.14
2023-03-13T04:17:18.704Z,5.16
2023-03-13T04:20:25.901Z,5.13
2023-03-13T04:23:29.002Z,5.23
2023-03-13T04:26:32.034Z,5.17
2023-03-13T04:29:55.484Z,5.01
2023-03-13T04:33:11.158Z,5.03
2023-03-13T04:36:31.200Z,5.18
2023-03-13T04:40:00.512Z,5.14
2023-03-13T04:43:12.889Z,5.16
2023-03-13T04:46:36.681Z,5.15
2023-03-13T04:49:39.663Z,4.94
2023-03-13T04:52:54.995Z,5.02
2023-03-13T04:56:09.559Z,5.07
2023-03-13T04:59:31.244Z,4.98
2023-03-13T05:02:53.732Z,4.85
2023-03-13T05:06:13.130Z,4.71
2023-03-13T05:09:54.818Z,4.62
2023-03-13T05:13:30.521Z,4.57
2023-03-13T05:17:03.602Z,4.59
2023-03-13T05:20:27.953Z,4.51
2023-03-13T05:23:52.576Z,4.72
2023-03-13T05:27:21.867Z,5.13
2023-03-13T05:30:46.620Z,5.58
2023-03-13T05:34:08.290Z,5.99
2023-03-13T05:37:23.241Z,6.46
2023-03-13T05:40:50.223Z,6.68
2023-03-13T05:44:31.542Z,6.76
2023-03-13T05:47:53.442Z,6.94
2023-03-13T05:51:15.846Z,7.00
2023-03-13T05:54:39.189Z,7.00
2023-03-13T05:58:20.793Z,7.30
2023-03-13T06:01:50.254Z,7.84
2023-03-13T06:05:02.783Z,8.28
2023-03-13T06:08:07.520Z,8.20
2023-03-13T06:11:10.661Z,8.29
2023-03-13T06:14:14.598Z,8.23
2023-03-13T06:17:25.669Z,8.11
2023-03-13T06:20:29.217Z,7.97
2023-03-13T06:23:32.286Z,8.07
2023-03-13T06:26:35.620Z,8.21
2023-03-13T06:29:38.659Z,8.64
2023-03-13T06:32:42.096Z,9.11
2023-03-13T06:35:56.301Z,9.24
2023-03-13T06:39:00.167Z,9.47
2023-03-13T06:42:03.203Z,9.82
2023-03-13T06:45:07.058Z,10.19
2023-03-13T06:48:10.103Z,10.20
2023-03-13T06:51:14.747Z,10.36
2023-03-13T06:54:17.904Z,10.19
2023-03-13T06:57:20.789Z,10.31
2023-03-13T07:00:24.482Z,10.49
2023-03-13T07:03:27.707Z,10.94
2023-03-13T07:06:30.919Z,11.12
2023-03-13T07:09:34.018Z,11.31
2023-03-13T07:12:37.928Z,11.42
2023-03-13T07:15:41.695Z,11.55
2023-03-13T07:18:45.289Z,11.51
2023-03-13T07:21:49.844Z,11.53
2023-03-13T07:24:53.190Z,11.35
2023-03-13T07:27:57.005Z,11.46
2023-03-13T07:31:15.621Z,11.82
2023-03-13T07:34:19.682Z,11.60
2023-03-13T07:37:22.792Z,11.33
2023-03-13T07:40:26.638Z,11.14
2023-03-13T07:43:31.483Z,10.92
2023-03-13T07:46:34.955Z,11.11
2023-03-13T07:49:42.168Z,11.26
2023-03-13T07:52:45.370Z,11.52
2023-03-13T07:55:56.779Z,11.86
2023-03-13T07:58:59.714Z,11.63
2023-03-13T08:02:02.853Z,11.68
2023-03-13T08:05:06.574Z,11.65
2023-03-13T08:08:10.276Z,11.21
2023-03-13T08:11:21.863Z,11.16
2023-03-13T08:14:25.192Z,11.67
2023-03-13T08:17:31.424Z,11.85
2023-03-13T08:20:36.638Z,11.86
2023-03-13T08:23:39.990Z,11.93
2023-03-13T08:26:43.168Z,11.33
2023-03-13T08:29:46.075Z,11.13
2023-03-13T08:32:49.212Z,11.33
2023-03-13T08:35:52.207Z,11.62
2023-03-13T08:39:05.839Z,11.62
2023-03-13T08:42:14.423Z,11.65
2023-03-13T08:45:17.615Z,11.90
2023-03-13T08:48:20.447Z,11.89
2023-03-13T08:51:25.978Z,12.40
2023-03-13T08:54:29.027Z,12.76
2023-03-13T08:57:32.101Z,13.13
2023-03-13T09:00:35.172Z,13.24
2023-03-13T09:03:38.703Z,13.02
2023-03-13T09:06:41.744Z,13.02
2023-03-13T09:09:44.691Z,13.09
2023-03-13T09:12:48.632Z,13.50
2023-03-13T09:16:04.802Z,13.28
2023-03-13T09:19:08.252Z,13.64
2023-03-13T09:22:11.454Z,13.85
2023-03-13T09:25:14.701Z,14.05
2023-03-13T09:28:17.742Z,14.39
2023-03-13T09:31:24.894Z,14.53
2023-03-13T09:34:28.315Z,14.53
2023-03-13T09:37:31.220Z,14.74
2023-03-13T09:40:59.731Z,14.91
2023-03-13T09:44:14.718Z,15.20
2023-03-13T09:47:35.928Z,15.71
2023-03-13T09:50:48.276Z,15.78
2023-03-13T09:54:02.082Z,15.63
2023-03-13T09:57:22.734Z,15.30
2023-03-13T10:00:38.753Z,15.54
2023-03-13T10:03:57.618Z,15.62
2023-03-13T10:07:00.698Z,15.67
2023-03-13T10:10:08.061Z,15.53
2023-03-13T10:13:27.075Z,15.22
2023-03-13T10:16:35.922Z,15.78
2023-03-13T10:19:44.545Z,16.15
2023-03-13T10:22:52.249Z,16.33
2023-03-13T10:25:55.272Z,16.85
2023-03-13T10:29:02.951Z,17.20
2023-03-13T10:32:08.336Z,17.42
2023-03-13T10:35:22.898Z,17.46
2023-03-13T10:38:26.012Z,17.54
2023-03-13T10:41:37.127Z,17.54
2023-03-13T10:44:40.114Z,17.67
2023-03-13T10:47:43.138Z,17.78
2023-03-13T10:50:49.000Z,17.76
2023-03-13T10:53:52.014Z,17.64
2023-03-13T10:57:18.074Z,17.45
2023-03-13T11:00:28.844Z,16.90
2023-03-13T11:03:35.249Z,16.97
2023-03-13T11:06:41.611Z,16.86
2023-03-13T11:10:13.018Z,16.29
2023-03-13T11:13:36.490Z,15.85
2023-03-13T11:16:49.445Z,16.51
2023-03-13T11:20:02.405Z,17.07
2023-03-13T11:23:34.477Z,15.63
2023-03-13T11:27:03.767Z,15.09
2023-03-13T11:30:39.900Z,14.92
2023-03-13T11:34:00.001Z,14.89
2023-03-13T11:37:08.893Z,15.09
2023-03-13T11:40:22.785Z,14.81
2023-03-13T11:43:34.625Z,15.09
2023-03-13T11:46:43.061Z,15.08
2023-03-13T11:50:35.765Z,15.23
2023-03-13T11:54:15.375Z,15.56
2023-03-13T11:57:53.259Z,15.98
2023-03-13T12:01:20.201Z,16.83
2023-03-13T12:04:28.551Z,17.19
2023-03-13T12:07:36.515Z,17.47
2023-03-13T12:10:46.297Z,17.50
2023-03-13T12:13:58.685Z,17.86
2023-03-13T12:17:06.328Z,18.29
2023-03-13T12:20:50.227Z,18.74
2023-03-13T12:24:13.513Z,18.56
2023-03-13T12:27:24.474Z,18.53
2023-03-13T12:30:37.845Z,18.40
2023-03-13T12:33:50.565Z,18.61
2023-03-13T12:36:58.180Z,18.28
2023-03-13T12:40:16.179Z,18.33
2023-03-13T12:43:38.935Z,18.19
2023-03-13T12:46:49.933Z,18.00
2023-03-13T12:50:37.158Z,17.86
2023-03-13T12:54:08.808Z,17.76
2023-03-13T12:57:14.510Z,17.71
2023-03-13T13:00:24.679Z,17.41
2023-03-13T13:03:39.173Z,17.56
2023-03-13T13:07:04.748Z,17.54
2023-03-13T13:10:11.057Z,17.56
2023-03-13T13:13:14.313Z,17.65
2023-03-13T13:16:24.783Z,17.93
2023-03-13T13:19:27.886Z,18.00
2023-03-13T13:22:37.260Z,17.83
2023-03-13T13:25:40.348Z,17.71
2023-03-13T13:28:44.083Z,17.69
2023-03-13T13:31:57.061Z,17.77
2023-03-13T13:35:09.207Z,17.97
2023-03-13T13:38:18.649Z,17.89
2023-03-13T13:41:35.352Z,17.94
2023-03-13T13:44:58.154Z,17.80
2023-03-13T13:48:33.832Z,17.59
2023-03-13T13:51:41.026Z,17.39
2023-03-13T13:54:46.683Z,17.29
2023-03-13T13:57:49.971Z,17.09
2023-03-13T14:00:55.881Z,17.07
2023-03-13T14:04:11.984Z,17.03
2023-03-13T14:07:47.438Z,16.74
2023-03-13T14:11:15.470Z,16.83
2023-03-13T14:14:20.818Z,16.83
2023-03-13T14:17:24.153Z,16.80
2023-03-13T14:20:34.716Z,16.83
2023-03-13T14:23:43.140Z,16.77
2023-03-13T14:26:46.407Z,16.65
2023-03-13T14:30:09.487Z,16.66
2023-03-13T14:33:13.656Z,16.57
2023-03-13T14:36:16.709Z,16.51
2023-03-13T14:39:38.053Z,16.46
2023-03-13T14:42:47.872Z,16.57
2023-03-13T14:45:54.356Z,16.42
2023-03-13T14:49:05.263Z,16.43
2023-03-13T14:52:25.260Z,16.24
2023-03-13T14:55:31.434Z,16.06
2023-03-13T14:58:37.729Z,15.90
2023-03-13T15:01:40.867Z,15.94
2023-03-13T15:05:01.598Z,16.04
2023-03-13T15:08:05.144Z,15.99
2023-03-13T15:11:29.653Z,15.83
2023-03-13T15:14:36.457Z,15.84
2023-03-13T15:17:39.374Z,15.76
2023-03-13T15:20:44.341Z,15.81
2023-03-13T15:24:00.840Z,15.80
2023-03-13T15:27:05.799Z,15.68
2023-03-13T15:30:09.402Z,15.62
2023-03-13T15:33:17.669Z,15.42
2023-03-13T15:36:20.569Z,15.56
2023-03-13T15:39:24.922Z,15.48
2023-03-13T15:42:28.576Z,15.51
2023-03-13T15:45:31.535Z,15.47
2023-03-13T15:48:34.466Z,15.40
2023-03-13T15:51:37.610Z,15.54
2023-03-13T15:54:40.473Z,15.46
2023-03-13T15:57:48.453Z,15.47
2023-03-13T16:00:52.094Z,15.52
2023-03-13T16:03:54.943Z,15.34
2023-03-13T16:06:58.245Z,15.11
2023-03-13T16:10:01.114Z,14.75
2023-03-13T16:13:04.316Z,14.64
2023-03-13T16:16:30.730Z,14.45
2023-03-13T16:19:33.899Z,14.35
2023-03-13T16:22:36.788Z,14.46
2023-03-13T16:25:39.831Z,14.50
2023-03-13T16:28:42.829Z,14.64
2023-03-13T16:31:45.777Z,14.88
2023-03-13T16:34:48.628Z,14.91
2023-03-13T16:37:52.126Z,14.92
2023-03-13T16:40:55.742Z,14.96
2023-03-13T16:43:58.773Z,14.84
2023-03-13T16:47:06.014Z,14.76
2023-03-13T16:50:23.595Z,14.63
2023-03-13T16:53:26.445Z,14.47
2023-03-13T16:56:38.076Z,14.40
2023-03-13T16:59:40.955Z,14.17
2023-03-13T17:02:44.298Z,14.09
2023-03-13T17:05:47.162Z,14.09
2023-03-13T17:08:50.722Z,13.99
2023-03-13T17:11:53.578Z,13.77
2023-03-13T17:14:56.614Z,13.57
2023-03-13T17:17:59.546Z,13.40
2023-03-13T17:21:03.792Z,13.28
2023-03-13T17:24:07.827Z,13.13
2023-03-13T17:27:13.995Z,13.02
2023-03-13T17:30:31.076Z,12.91
2023-03-13T17:33:33.933Z,12.81
2023-03-13T17:36:37.018Z,12.64
2023-03-13T17:39:39.805Z,12.55
2023-03-13T17:42:42.665Z,12.31
2023-03-13T17:45:46.205Z,12.07
2023-03-13T17:48:52.860Z,11.92
2023-03-13T17:51:56.569Z,11.46
2023-03-13T17:54:59.469Z,11.24
2023-03-13T17:58:02.322Z,11.32
2023-03-13T18:01:05.565Z,11.22
2023-03-13T18:04:09.188Z,11.25
2023-03-13T18:07:21.178Z,11.26
2023-03-13T18:10:28.045Z,11.23
2023-03-13T18:13:31.078Z,11.23
2023-03-13T18:16:57.318Z,11.14
2023-03-13T18:20:00.363Z,11.05
2023-03-13T18:23:03.221Z,10.94
2023-03-13T18:26:25.556Z,10.77
2023-03-13T18:29:29.322Z,10.65
2023-03-13T18:32:32.473Z,10.60
2023-03-13T18:35:35.377Z,10.52
2023-03-13T18:38:38.308Z,10.57
2023-03-13T18:41:41.231Z,10.31
2023-03-13T18:44:44.142Z,10.23
2023-03-13T18:47:48.440Z,10.17
2023-03-13T18:50:52.627Z,10.14
2023-03-13T18:53:56.194Z,10.16
2023-03-13T18:56:59.622Z,10.14
2023-03-13T19:00:03.071Z,10.12
2023-03-13T19:03:06.494Z,10.17
2023-03-13T19:06:33.676Z,10.00
2023-03-13T19:09:43.680Z,10.07
2023-03-13T19:12:47.515Z,9.89
2023-03-13T19:15:50.440Z,9.86
2023-03-13T19:18:53.823Z,9.80
2023-03-13T19:21:57.187Z,9.72
2023-03-13T19:25:00.106Z,9.82
2023-03-13T19:28:03.090Z,9.76
2023-03-13T19:31:06.268Z,9.75
2023-03-13T19:34:09.702Z,9.83
2023-03-13T19:37:14.805Z,9.67
2023-03-13T19:40:19.536Z,9.51
2023-03-13T19:43:22.538Z,9.50
2023-03-13T19:46:27.873Z,9.51
2023-03-13T19:49:31.451Z,9.22
2023-03-13T19:52:34.569Z,9.04
2023-03-13T19:55:37.586Z,9.01
2023-03-13T19:58:40.510Z,8.94
2023-03-13T20:01:44.169Z,9.00
2023-03-13T20:04:47.181Z,8.88
2023-03-13T20:07:50.161Z,8.91
2023-03-13T20:10:53.789Z,8.74
2023-03-13T20:13:57.060Z,8.82
2023-03-13T20:16:59.949Z,8.63
2023-03-13T20:20:03.605Z,8.60
2023-03-13T20:23:06.634Z,8.66
2023-03-13T20:26:12.576Z,8.61
2023-03-13T20:29:15.415Z,8.67
2023-03-13T20:32:18.642Z,8.47
2023-03-13T20:35:21.564Z,8.53
2023-03-13T20:38:24.852Z,8.56
2023-03-13T20:41:31.390Z,8.44
2023-03-13T20:44:34.345Z,8.47
2023-03-13T20:47:37.431Z,8.38
2023-03-13T20:50:41.541Z,8.37
2023-03-13T20:53:44.438Z,8.43
2023-03-13T20:56:47.448Z,8.35
2023-03-13T20:59:50.746Z,8.30
2023-03-13T21:02:54.486Z,8.33
2023-03-13T21:05:57.686Z,8.27
2023-03-13T21:09:03.474Z,8.25
2023-03-13T21:12:07.017Z,8.12
2023-03-13T21:15:10.844Z,8.11
2023-03-13T21:18:13.763Z,7.90
2023-03-13T21:21:19.246Z,7.94
2023-03-13T21:24:22.045Z,7.93
2023-03-13T21:27:25.004Z,7.92
2023-03-13T21:30:29.775Z,7.91
2023-03-13T21:33:32.688Z,7.87
2023-03-13T21:36:35.617Z,7.85
2023-03-13T21:39:42.174Z,7.87
2023-03-13T21:42:45.002Z,8.01
2023-03-13T21:45:48.583Z,8.12
2023-03-13T21:48:51.530Z,8.13
2023-03-13T21:51:56.403Z,8.21
2023-03-13T21:54:59.173Z,8.28
2023-03-13T21:58:01.995Z,8.29
2023-03-13T22:01:05.084Z,8.30
2023-03-13T22:04:08.707Z,8.19
2023-03-13T22:07:11.565Z,8.10
2023-03-13T22:10:15.645Z,8.09
2023-03-13T22:13:18.860Z,8.11
2023-03-13T22:16:21.641Z,8.08
2023-03-13T22:19:24.680Z,8.08
2023-03-13T22:22:27.546Z,7.94
2023-03-13T22:25:30.332Z,7.78
2023-03-13T22:28:33.200Z,7.92
2023-03-13T22:31:36.290Z,7.91
2023-03-13T22:34:44.894Z,8.01
2023-03-13T22:37:47.964Z,7.97
2023-03-13T22:41:13.030Z,7.91
2023-03-13T22:44:16.946Z,7.97
2023-03-13T22:47:19.790Z,7.90
2023-03-13T22:50:25.822Z,8.22
2023-03-13T22:53:30.160Z,8.65
2023-03-13T22:56:33.109Z,8.83
2023-03-13T22:59:36.176Z,8.77
2023-03-13T23:02:39.209Z,8.78
2023-03-13T23:05:44.325Z,8.76
2023-03-13T23:08:47.528Z,8.82
2023-03-13T23:11:50.680Z,8.98
2023-03-13T23:14:54.588Z,8.93
2023-03-13T23:17:57.389Z,8.95
2023-03-13T23:21:05.725Z,8.89
2023-03-13T23:24:08.855Z,8.98
2023-03-13T23:27:12.041Z,8.97
2023-03-13T23:30:16.640Z,9.02
2023-03-13T23:33:19.687Z,9.05
2023-03-13T23:36:22.488Z,8.99
2023-03-13T23:39:25.328Z,9.03
2023-03-13T23:42:28.854Z,9.21
2023-03-13T23:45:31.696Z,9.24
2023-03-13T23:48:34.649Z,9.34
2023-03-13T23:51:37.598Z,9.55
2023-03-13T23:54:40.469Z,9.50
2023-03-13T23:57:43.233Z,9.70
